Time;durP1;ratioP1;P1;durP2;ratioP2;P2;SDS_P1;SDS_P2;PMS_P1;PMS_P2;Temp;Humidity;BMP_temperature;BMP_pressure;BME280_temperature;BME280_humidity;BME280_pressure;Samples;Min_cycle;Max_cycle;Signal;HPM_P1;HPM_P2
2021/10/29 00:00:03;;;;;;;25.83;11.33;;;10.30;99.90;;;;;;5040465;28;20452;-55
2021/10/29 00:02:29;;;;;;;22.90;12.70;;;10.30;99.90;;;;;;5048072;22;20499;-58
2021/10/29 00:04:58;;;;;;;16.03;11.20;;;10.30;99.90;;;;;;5040288;28;20843;-58
2021/10/29 00:07:25;;;;;;;20.27;11.37;;;10.20;99.90;;;;;;5047666;22;20484;-59
2021/10/29 00:09:52;;;;;;;23.73;12.10;;;10.30;99.90;;;;;;5040303;28;20452;-60
2021/10/29 00:12:21;;;;;;;21.53;11.30;;;10.30;99.90;;;;;;5047458;22;20960;-55
2021/10/29 00:14:48;;;;;;;21.97;11.97;;;10.20;99.90;;;;;;5040677;28;20474;-57
2021/10/29 00:17:19;;;;;;;24.63;12.67;;;10.20;99.90;;;;;;5044735;22;20491;-58
2021/10/29 00:19:46;;;;;;;21.33;12.37;;;10.20;99.90;;;;;;5019885;28;20918;-55
2021/10/29 00:22:14;;;;;;;19.50;12.03;;;10.10;99.90;;;;;;5027522;23;20906;-58
2021/10/29 00:24:41;;;;;;;22.83;12.40;;;10.10;99.90;;;;;;5021007;28;20488;-58
2021/10/29 00:27:15;;;;;;;21.47;14.03;;;10.10;99.90;;;;;;5029099;22;21065;-49
2021/10/29 00:29:42;;;;;;;25.67;13.20;;;10.00;99.90;;;;;;5038910;28;20495;-59
2021/10/29 00:32:09;;;;;;;33.50;13.77;;;10.10;99.90;;;;;;5040317;28;20513;-59
2021/10/29 00:34:36;;;;;;;18.90;12.47;;;10.00;99.90;;;;;;5047031;22;20957;-59
2021/10/29 00:37:04;;;;;;;18.30;12.67;;;10.00;99.90;;;;;;5039801;28;20535;-58
2021/10/29 00:39:35;;;;;;;24.13;14.00;;;10.00;99.90;;;;;;5031900;22;20488;-54
2021/10/29 00:42:02;;;;;;;24.17;13.37;;;10.00;99.90;;;;;;5020043;28;20480;-59
2021/10/29 00:44:28;;;;;;;24.43;14.73;;;10.00;99.90;;;;;;5027029;22;20580;-59
2021/10/29 00:46:55;;;;;;;20.70;13.27;;;9.90;99.90;;;;;;5019400;28;20497;-57
2021/10/29 00:49:22;;;;;;;30.93;12.57;;;9.90;99.90;;;;;;5027081;23;20535;-59
2021/10/29 00:51:50;;;;;;;24.40;13.30;;;9.80;99.90;;;;;;5019965;28;20462;-57
2021/10/29 00:54:19;;;;;;;18.70;12.67;;;9.90;99.90;;;;;;5027551;23;20986;-59
2021/10/29 00:56:48;;;;;;;25.57;12.30;;;9.80;99.90;;;;;;5019510;28;20449;-58
2021/10/29 00:59:17;;;;;;;28.57;13.70;;;9.80;99.90;;;;;;5019212;28;20449;-57
2021/10/29 01:01:45;;;;;;;23.63;12.33;;;9.80;99.90;;;;;;5019857;28;20560;-58
2021/10/29 01:04:11;;;;;;;22.97;13.63;;;9.80;99.90;;;;;;5026572;23;20493;-52
2021/10/29 01:06:38;;;;;;;20.80;13.20;;;9.80;99.90;;;;;;5019752;28;20965;-58
2021/10/29 01:09:05;;;;;;;21.77;11.80;;;9.90;99.90;;;;;;5026714;22;20452;-60
2021/10/29 01:11:32;;;;;;;25.83;13.57;;;9.90;99.90;;;;;;5019186;28;20488;-56
2021/10/29 01:14:01;;;;;;;30.80;14.60;;;9.80;99.90;;;;;;5019475;28;20917;-59
2021/10/29 01:16:28;;;;;;;25.17;13.00;;;9.70;99.90;;;;;;5026798;22;20493;-57
2021/10/29 01:18:54;;;;;;;20.97;13.67;;;9.60;99.90;;;;;;5019452;28;20527;-56
2021/10/29 01:21:22;;;;;;;23.90;11.80;;;9.60;99.90;;;;;;5019170;28;20468;-59
2021/10/29 01:23:49;;;;;;;22.80;13.07;;;9.60;99.90;;;;;;5019233;28;20476;-56
2021/10/29 01:26:17;;;;;;;26.83;12.60;;;9.60;99.90;;;;;;5026188;23;20543;-55
2021/10/29 01:28:44;;;;;;;24.60;13.30;;;9.60;99.90;;;;;;5019523;28;20456;-58
2021/10/29 01:31:13;;;;;;;29.37;16.37;;;9.50;99.90;;;;;;5026496;23;20496;-58
2021/10/29 01:33:40;;;;;;;20.80;12.73;;;9.40;99.90;;;;;;5019207;28;20449;-58
2021/10/29 01:36:07;;;;;;;25.03;14.67;;;9.40;99.90;;;;;;5027324;23;20492;-56
2021/10/29 01:38:38;;;;;;;23.40;11.93;;;9.40;99.90;;;;;;5019002;28;20449;-53
2021/10/29 01:41:06;;;;;;;24.50;14.50;;;9.40;99.90;;;;;;5026907;23;20477;-58
2021/10/29 01:43:39;;;;;;;22.80;12.97;;;9.40;99.90;;;;;;5018757;28;20809;-57
2021/10/29 01:46:05;;;;;;;21.23;13.23;;;9.30;99.90;;;;;;5026378;22;20477;-55
2021/10/29 01:48:32;;;;;;;27.07;14.30;;;9.20;99.90;;;;;;5018875;28;20632;-54
2021/10/29 01:50:59;;;;;;;28.23;14.10;;;9.30;99.90;;;;;;5018938;28;20441;-57
2021/10/29 01:53:27;;;;;;;31.10;14.20;;;9.20;99.90;;;;;;5044083;22;20984;-56
2021/10/29 01:55:55;;;;;;;26.20;13.27;;;9.30;99.90;;;;;;5038608;28;20482;-57
2021/10/29 01:58:22;;;;;;;25.63;13.80;;;9.30;99.90;;;;;;5045408;22;20499;-58
2021/10/29 02:00:49;;;;;;;21.80;13.03;;;9.30;99.90;;;;;;5037835;28;20913;-53
2021/10/29 02:03:15;;;;;;;24.17;14.93;;;9.30;99.90;;;;;;5062434;22;20492;-58
2021/10/29 02:05:43;;;;;;;24.40;12.80;;;9.30;99.90;;;;;;5038846;28;20622;-55
2021/10/29 02:08:11;;;;;;;23.97;14.40;;;9.30;99.90;;;;;;5046374;22;20496;-59
2021/10/29 02:10:38;;;;;;;23.07;14.60;;;9.40;99.90;;;;;;5038327;28;20479;-59
2021/10/29 02:13:07;;;;;;;24.43;14.13;;;9.40;99.90;;;;;;5045619;22;20516;-55
2021/10/29 02:15:33;;;;;;;25.73;14.47;;;9.30;99.90;;;;;;5038221;28;20519;-59
2021/10/29 02:18:12;;;;;;;28.60;13.30;;;9.30;99.90;;;;;;5045403;22;20484;-59
2021/10/29 02:20:38;;;;;;;33.23;14.43;;;9.20;99.90;;;;;;5037665;28;20440;-58
2021/10/29 02:23:15;;;;;;;22.80;12.63;;;9.30;99.90;;;;;;5045000;22;20520;-53
2021/10/29 02:25:45;;;;;;;24.37;13.27;;;9.20;99.90;;;;;;5039139;28;20548;-60
2021/10/29 02:28:14;;;;;;;21.57;12.67;;;9.20;99.90;;;;;;5046111;22;21040;-59
2021/10/29 02:30:42;;;;;;;26.23;15.30;;;9.20;99.90;;;;;;5039208;28;20463;-57
2021/10/29 02:33:10;;;;;;;23.83;13.40;;;9.10;99.90;;;;;;5046957;22;20755;-60
2021/10/29 02:35:37;;;;;;;27.77;14.60;;;9.20;99.90;;;;;;5039876;28;20421;-58
2021/10/29 02:38:06;;;;;;;21.47;14.03;;;9.20;99.90;;;;;;5045740;22;20476;-58
2021/10/29 02:40:33;;;;;;;27.80;15.57;;;9.10;99.90;;;;;;5000464;28;20458;-58
2021/10/29 02:43:01;;;;;;;25.07;15.10;;;9.10;99.90;;;;;;5001007;28;20896;-62
2021/10/29 02:45:29;;;;;;;25.17;14.03;;;9.10;99.90;;;;;;5042594;23;20840;-59
2021/10/29 02:47:56;;;;;;;29.83;14.10;;;9.00;99.90;;;;;;5038863;28;20444;-59
2021/10/29 02:50:25;;;;;;;22.17;12.70;;;9.00;99.90;;;;;;5028831;22;20488;-60
2021/10/29 02:52:52;;;;;;;24.20;14.20;;;9.00;99.90;;;;;;5018361;28;20449;-59
2021/10/29 02:55:19;;;;;;;19.53;11.70;;;9.00;99.90;;;;;;5048626;23;20492;-57
2021/10/29 02:57:46;;;;;;;24.77;14.80;;;9.00;99.90;;;;;;5038128;28;20448;-60
2021/10/29 03:00:20;;;;;;;26.70;15.20;;;9.00;99.90;;;;;;5045004;22;20492;-58
2021/10/29 03:02:48;;;;;;;24.30;14.00;;;9.00;99.90;;;;;;5037679;28;20473;-56
2021/10/29 03:05:17;;;;;;;23.93;13.30;;;9.00;99.90;;;;;;5041074;22;20568;-59
2021/10/29 03:07:44;;;;;;;21.03;12.87;;;9.00;99.90;;;;;;5017570;28;20441;-58
2021/10/29 03:12:40;;;;;;;25.37;12.10;;;8.90;99.90;;;;;;5157404;27;20540;-55
2021/10/29 03:15:09;;;;;;;25.17;14.00;;;8.80;99.90;;;;;;5162312;22;20506;-53
2021/10/29 03:17:35;;;;;;;24.87;15.87;;;8.80;99.90;;;;;;5075414;28;20474;-59
2021/10/29 03:20:03;;;;;;;27.93;14.93;;;8.70;99.90;;;;;;5075936;28;20438;-56
2021/10/29 03:22:29;;;;;;;18.80;10.97;;;8.60;99.90;;;;;;5098810;22;20505;-58
2021/10/29 03:24:56;;;;;;;22.33;13.60;;;8.60;99.90;;;;;;5075807;28;20449;-59
2021/10/29 03:27:23;;;;;;;33.67;15.10;;;8.60;99.90;;;;;;5082969;22;20599;-55
2021/10/29 03:29:51;;;;;;;32.23;16.20;;;8.50;99.90;;;;;;5076076;28;20461;-58
2021/10/29 03:32:21;;;;;;;33.43;14.40;;;8.50;99.90;;;;;;5082820;22;20498;-57
2021/10/29 03:34:47;;;;;;;27.70;15.73;;;8.50;99.90;;;;;;5075483;28;20779;-56
2021/10/29 03:37:24;;;;;;;28.70;14.37;;;8.50;99.90;;;;;;5082999;22;20547;-56
2021/10/29 03:39:55;;;;;;;30.73;15.77;;;8.50;99.90;;;;;;5075663;28;20559;-56
2021/10/29 03:42:25;;;;;;;31.83;13.23;;;8.50;99.90;;;;;;5087724;22;20485;-59
2021/10/29 03:44:58;;;;;;;21.97;12.17;;;8.50;99.90;;;;;;5096219;28;20497;-59
2021/10/29 03:47:29;;;;;;;26.47;14.90;;;8.50;99.90;;;;;;5103934;22;20485;-59
2021/10/29 03:50:06;;;;;;;29.67;14.37;;;8.40;99.90;;;;;;5095801;28;20541;-57
2021/10/29 03:52:34;;;;;;;27.23;13.90;;;8.50;99.90;;;;;;5100126;22;20522;-54
2021/10/29 03:55:06;;;;;;;25.33;13.10;;;8.50;99.90;;;;;;5075546;28;20454;-59
2021/10/29 03:57:33;;;;;;;26.97;14.33;;;8.50;99.90;;;;;;5083462;22;20435;-60
2021/10/29 04:00:02;;;;;;;21.80;13.00;;;8.50;99.90;;;;;;5075382;28;20472;-58
2021/10/29 04:02:29;;;;;;;28.43;13.80;;;8.50;99.90;;;;;;5075487;28;20481;-60
2021/10/29 04:04:57;;;;;;;23.30;12.13;;;8.40;99.90;;;;;;5101431;22;20560;-59
2021/10/29 04:07:24;;;;;;;29.87;15.27;;;8.40;99.90;;;;;;5095791;28;20473;-57
2021/10/29 04:09:53;;;;;;;36.30;16.57;;;8.40;99.90;;;;;;5086540;22;20490;-55
2021/10/29 04:12:20;;;;;;;25.30;12.67;;;8.30;99.90;;;;;;5075246;28;20474;-59
2021/10/29 04:14:47;;;;;;;24.53;15.07;;;8.30;99.90;;;;;;5096685;22;20488;-59
2021/10/29 04:17:15;;;;;;;28.33;14.10;;;8.20;99.90;;;;;;5077836;28;20764;-58
2021/10/29 04:19:42;;;;;;;32.03;15.40;;;8.30;99.90;;;;;;5102625;22;20562;-59
2021/10/29 04:22:08;;;;;;;21.00;13.40;;;8.30;99.90;;;;;;5091896;28;20438;-58
2021/10/29 04:24:37;;;;;;;30.17;15.83;;;8.30;99.90;;;;;;5078516;22;20967;-59
2021/10/29 04:27:05;;;;;;;26.33;14.83;;;8.40;99.90;;;;;;5061149;28;20768;-58
2021/10/29 04:29:36;;;;;;;24.13;14.50;;;8.30;99.90;;;;;;5085172;22;20560;-58
2021/10/29 04:32:04;;;;;;;24.33;13.57;;;8.20;99.90;;;;;;5061266;28;20507;-59
2021/10/29 04:34:32;;;;;;;22.10;14.10;;;8.20;99.90;;;;;;5074229;22;20478;-59
2021/10/29 04:37:00;;;;;;;26.17;12.23;;;8.20;99.90;;;;;;5082010;28;20457;-61
2021/10/29 04:39:27;;;;;;;21.40;13.37;;;8.20;99.90;;;;;;5088264;22;20477;-56
2021/10/29 04:41:54;;;;;;;27.10;14.57;;;8.20;99.90;;;;;;5081625;28;20466;-57
2021/10/29 04:44:26;;;;;;;25.30;13.83;;;8.20;99.90;;;;;;5090114;22;20563;-59
2021/10/29 04:46:55;;;;;;;28.13;15.10;;;8.20;99.90;;;;;;5040402;28;20468;-56
2021/10/29 04:52:02;;;;;;;25.97;14.33;;;8.20;99.90;;;;;;5066721;22;20906;-59
2021/10/29 04:57:13;;;;;;;21.57;13.37;;;8.10;99.90;;;;;;5069153;22;20578;-59
2021/10/29 04:59:39;;;;;;;21.87;13.47;;;8.10;99.90;;;;;;5060963;28;20509;-58
2021/10/29 05:02:06;;;;;;;26.23;14.60;;;8.10;99.90;;;;;;5068395;22;20505;-58
2021/10/29 05:04:33;;;;;;;27.87;15.43;;;8.00;99.90;;;;;;5061269;28;20463;-57
2021/10/29 05:07:10;;;;;;;21.50;14.23;;;8.00;99.90;;;;;;5069171;22;20498;-58
2021/10/29 05:09:37;;;;;;;33.37;15.40;;;7.90;99.90;;;;;;5061457;28;20470;-54
2021/10/29 05:12:04;;;;;;;24.40;12.90;;;7.90;99.90;;;;;;5068362;22;20478;-58
2021/10/29 05:14:31;;;;;;;30.80;14.60;;;7.90;99.90;;;;;;5061432;28;20471;-59
2021/10/29 05:16:57;;;;;;;32.03;13.50;;;7.90;99.90;;;;;;5080434;22;20482;-58
2021/10/29 05:19:24;;;;;;;31.90;15.90;;;7.90;99.90;;;;;;5080420;28;20457;-58
2021/10/29 05:21:51;;;;;;;32.03;15.40;;;7.90;99.90;;;;;;5088448;22;20830;-59
2021/10/29 05:24:19;;;;;;;29.57;14.53;;;7.90;99.90;;;;;;5080175;28;20434;-56
2021/10/29 05:26:46;;;;;;;26.67;14.77;;;7.80;99.90;;;;;;5080484;22;20487;-57
2021/10/29 05:29:13;;;;;;;21.77;13.97;;;7.80;99.90;;;;;;5060324;28;20748;-59
2021/10/29 05:34:11;;;;;;;22.50;14.13;;;7.80;99.90;;;;;;5085002;22;20815;-58
2021/10/29 05:36:38;;;;;;;21.87;12.23;;;7.80;99.90;;;;;;5081020;28;20527;-57
2021/10/29 05:39:08;;;;;;;28.63;15.23;;;7.80;99.90;;;;;;5087731;22;20985;-57
2021/10/29 05:41:37;;;;;;;29.77;13.37;;;7.90;99.90;;;;;;5061374;28;20470;-56
2021/10/29 05:44:06;;;;;;;24.27;13.20;;;7.90;99.90;;;;;;5067006;22;20492;-58
2021/10/29 05:46:33;;;;;;;25.23;13.57;;;7.80;99.90;;;;;;5039986;28;20466;-56
2021/10/29 05:49:00;;;;;;;24.30;14.20;;;7.70;99.90;;;;;;5075474;22;20889;-54
2021/10/29 05:51:27;;;;;;;24.30;13.60;;;7.80;99.90;;;;;;5080684;28;20486;-60
2021/10/29 05:54:08;;;;;;;24.20;13.43;;;7.80;99.90;;;;;;5088304;22;20497;-57
2021/10/29 05:56:36;;;;;;;23.93;16.40;;;7.70;99.90;;;;;;5080286;28;20434;-55
2021/10/29 05:59:12;;;;;;;19.67;12.80;;;7.70;99.90;;;;;;5087665;22;20486;-58
2021/10/29 06:01:42;;;;;;;28.33;13.60;;;7.70;99.90;;;;;;5080547;28;20512;-58
2021/10/29 06:04:09;;;;;;;33.13;14.77;;;7.80;99.90;;;;;;5083196;22;20486;-60
2021/10/29 06:06:36;;;;;;;31.90;15.23;;;7.80;99.90;;;;;;5060218;28;20470;-58
2021/10/29 06:09:04;;;;;;;22.57;11.70;;;7.70;99.90;;;;;;5069259;22;20454;-53
2021/10/29 06:11:31;;;;;;;37.37;15.80;;;7.70;99.90;;;;;;5080097;28;20490;-58
2021/10/29 06:16:26;;;;;;;27.43;13.07;;;7.70;99.90;;;;;;5064968;22;20565;-59
2021/10/29 06:18:55;;;;;;;27.77;15.70;;;7.70;99.90;;;;;;5059506;28;20457;-58
2021/10/29 06:21:32;;;;;;;23.23;14.87;;;7.80;99.90;;;;;;5097335;22;20491;-50
2021/10/29 06:24:01;;;;;;;30.87;14.10;;;7.80;99.90;;;;;;5069519;28;20423;-59
2021/10/29 06:26:38;;;;;;;24.20;14.13;;;7.80;99.90;;;;;;5087065;22;20504;-55
2021/10/29 06:29:05;;;;;;;22.77;13.47;;;7.80;99.90;;;;;;5085124;28;20477;-53
2021/10/29 06:31:35;;;;;;;24.67;12.83;;;7.80;99.90;;;;;;5093375;22;20495;-52
2021/10/29 06:34:02;;;;;;;24.90;12.43;;;7.80;99.90;;;;;;5066335;28;20501;-58
2021/10/29 06:36:29;;;;;;;24.90;14.37;;;7.80;99.90;;;;;;5088941;22;20503;-58
2021/10/29 06:38:57;;;;;;;25.90;13.90;;;7.70;99.90;;;;;;5066145;28;20522;-58
2021/10/29 06:41:24;;;;;;;25.37;14.90;;;7.70;99.90;;;;;;5083433;22;20486;-56
2021/10/29 06:44:02;;;;;;;33.13;14.50;;;7.60;99.90;;;;;;5084550;28;20524;-60
2021/10/29 06:46:38;;;;;;;24.50;13.63;;;7.60;99.90;;;;;;5093072;22;20518;-59
2021/10/29 06:49:16;;;;;;;25.83;13.90;;;7.70;99.90;;;;;;5085148;28;20569;-58
2021/10/29 07:00:00;;;;;;;29.37;14.20;;;7.60;99.90;;;;;;5085930;28;20456;-59
2021/10/29 07:40:44;;;;;;;25.17;14.50;;;8.20;99.90;;;;;;5095867;28;20419;-57
2021/10/29 07:43:14;;;;;;;30.17;14.90;;;8.20;99.90;;;;;;5119253;22;20501;-60
2021/10/29 07:45:42;;;;;;;24.37;14.10;;;8.10;99.90;;;;;;5095413;28;20450;-53
2021/10/29 07:48:09;;;;;;;26.10;13.60;;;8.20;99.90;;;;;;5135690;22;20478;-55
2021/10/29 07:50:36;;;;;;;29.70;15.40;;;8.20;99.90;;;;;;5095670;28;20438;-62
2021/10/29 07:53:03;;;;;;;27.83;13.60;;;8.20;99.90;;;;;;5119338;22;20517;-60
2021/10/29 07:55:31;;;;;;;26.70;14.70;;;8.20;99.90;;;;;;5095723;28;20423;-60
2021/10/29 08:00:26;;;;;;;27.00;13.80;;;8.40;99.90;;;;;;5104714;22;20488;-57
2021/10/29 08:02:54;;;;;;;25.27;15.70;;;8.50;99.90;;;;;;5099327;28;20464;-63
2021/10/29 08:05:23;;;;;;;19.20;11.57;;;8.50;99.90;;;;;;5106825;22;20482;-59
2021/10/29 08:07:51;;;;;;;19.67;12.53;;;8.60;99.90;;;;;;5099270;28;20467;-62
2021/10/29 08:10:18;;;;;;;26.53;13.83;;;8.60;99.90;;;;;;5090069;22;20494;-62
2021/10/29 08:12:45;;;;;;;26.43;14.70;;;8.70;99.90;;;;;;5078634;28;20482;-57
2021/10/29 08:15:15;;;;;;;17.63;12.13;;;8.80;99.90;;;;;;5099143;22;20481;-61
2021/10/29 08:17:44;;;;;;;21.23;13.00;;;8.90;99.90;;;;;;5098246;28;20452;-56
2021/10/29 08:20:14;;;;;;;23.03;14.33;;;8.90;99.90;;;;;;5105883;22;20478;-61
2021/10/29 08:22:42;;;;;;;33.47;13.50;;;9.00;99.90;;;;;;5098508;28;20434;-61
2021/10/29 08:25:11;;;;;;;22.40;11.77;;;9.10;99.90;;;;;;5085518;28;20786;-48
2021/10/29 08:27:38;;;;;;;24.80;13.83;;;9.10;99.90;;;;;;5082164;28;20826;-49
2021/10/29 08:30:08;;;;;;;23.77;13.00;;;9.10;99.90;;;;;;5081745;28;20451;-47
2021/10/29 08:32:35;;;;;;;33.70;14.60;;;9.10;99.90;;;;;;5082042;28;20528;-49
2021/10/29 08:35:07;;;;;;;29.77;15.27;;;9.20;99.90;;;;;;5081874;28;20942;-51
2021/10/29 08:37:34;;;;;;;20.87;11.97;;;9.20;99.90;;;;;;5082223;28;20521;-48
2021/10/29 08:40:03;;;;;;;27.97;15.10;;;9.30;99.90;;;;;;5081625;28;20438;-52
2021/10/29 08:42:30;;;;;;;20.63;11.83;;;9.30;99.90;;;;;;5080454;28;20438;-49
2021/10/29 08:44:57;;;;;;;23.17;12.80;;;9.40;99.90;;;;;;5081828;28;20470;-48
2021/10/29 08:47:25;;;;;;;18.80;10.50;;;9.40;99.90;;;;;;5081722;28;20454;-52
2021/10/29 08:49:52;;;;;;;26.80;13.40;;;9.50;99.90;;;;;;5081020;28;20508;-48
2021/10/29 08:52:23;;;;;;;28.53;15.53;;;9.60;99.90;;;;;;5081028;28;20832;-48
2021/10/29 08:54:54;;;;;;;21.77;12.63;;;9.70;99.90;;;;;;5081544;28;20502;-44
2021/10/29 08:57:21;;;;;;;22.33;13.27;;;9.80;99.90;;;;;;5080867;28;20457;-51
2021/10/29 08:59:51;;;;;;;25.10;13.80;;;9.80;99.90;;;;;;5081526;28;20934;-47
2021/10/29 09:02:22;;;;;;;26.83;16.70;;;10.00;99.90;;;;;;5090899;22;20522;-49
2021/10/29 09:04:53;;;;;;;21.63;13.77;;;10.10;99.90;;;;;;5082689;28;20499;-47
2021/10/29 09:07:32;;;;;;;27.60;13.93;;;10.20;99.90;;;;;;5081232;28;20427;-50
2021/10/29 09:32:22;;;;;;;15.50;10.60;;;15.90;99.90;;;;;;5077618;28;20511;-47
2021/10/29 09:35:01;;;;;;;16.37;11.03;;;17.80;99.90;;;;;;5085406;22;20486;-66
2021/10/29 09:37:36;;;;;;;17.33;11.43;;;19.40;99.90;;;;;;5077580;28;20442;-63
2021/10/29 09:40:09;;;;;;;15.70;9.90;;;20.30;98.60;;;;;;5084868;22;20493;-62
2021/10/29 09:42:38;;;;;;;16.55;10.95;;;21.00;94.90;;;;;;5076602;28;20433;-62
2021/10/29 09:45:17;;;;;;;16.80;10.30;;;21.70;91.00;;;;;;5084371;22;20909;-62
2021/10/29 09:47:52;;;;;;;17.10;12.10;;;22.20;86.20;;;;;;5077083;28;20434;-64
2021/10/29 09:50:25;;;;;;;16.43;11.37;;;22.30;81.80;;;;;;5083925;22;20477;-63
2021/10/29 09:53:08;;;;;;;14.53;11.17;;;22.60;79.60;;;;;;5076339;28;20772;-65
2021/10/29 09:55:56;;;;;;;17.43;11.07;;;22.60;77.30;;;;;;5084294;22;20490;-64
2021/10/29 09:58:24;;;;;;;16.67;11.30;;;22.60;75.80;;;;;;5076421;28;20854;-66
2021/10/29 10:00:51;;;;;;;15.90;9.80;;;22.70;74.00;;;;;;5083900;22;20482;-63
2021/10/29 10:03:22;;;;;;;15.00;11.57;;;22.70;73.40;;;;;;5076080;28;20487;-61
2021/10/29 10:05:51;;;;;;;15.17;9.57;;;22.90;72.20;;;;;;5084006;22;20484;-62
2021/10/29 10:08:21;;;;;;;18.77;11.10;;;22.80;72.00;;;;;;5076267;28;20622;-63
2021/10/29 10:10:51;;;;;;;13.93;11.10;;;23.20;70.50;;;;;;5083868;22;20490;-64
2021/10/29 10:13:19;;;;;;;14.00;10.67;;;23.40;68.90;;;;;;5076569;28;20540;-65
2021/10/29 10:15:50;;;;;;;16.20;9.83;;;23.40;68.70;;;;;;5087288;22;20822;-63
2021/10/29 10:18:17;;;;;;;14.73;10.73;;;23.30;68.00;;;;;;5077855;28;20537;-62
2021/10/29 10:20:44;;;;;;;15.50;11.93;;;23.30;67.30;;;;;;5083016;22;20501;-65
2021/10/29 10:23:16;;;;;;;14.60;10.57;;;23.20;67.60;;;;;;5076523;28;20446;-63
2021/10/29 10:25:57;;;;;;;15.33;10.90;;;23.20;67.00;;;;;;5106166;22;20561;-65
2021/10/29 10:28:56;;;;;;;14.73;11.07;;;23.10;67.30;;;;;;5079013;28;20480;-60
2021/10/29 10:40:25;;;;;;;16.30;10.97;;;23.20;65.90;;;;;;5078197;28;20418;-63
2021/10/29 10:43:04;;;;;;;15.23;10.70;;;23.40;64.80;;;;;;5085407;22;20481;-65
2021/10/29 10:45:37;;;;;;;17.90;11.57;;;23.20;65.50;;;;;;5077736;28;20441;-67
2021/10/29 10:48:13;;;;;;;15.20;11.50;;;23.00;65.80;;;;;;5085451;22;20527;-64
2021/10/29 10:50:45;;;;;;;14.10;9.53;;;22.40;66.60;;;;;;5077527;28;20915;-60
2021/10/29 10:53:28;;;;;;;13.80;10.60;;;22.10;68.40;;;;;;5084718;22;20494;-63
2021/10/29 10:56:11;;;;;;;15.23;10.97;;;21.80;67.60;;;;;;5077270;28;20446;-64
2021/10/29 10:59:03;;;;;;;17.10;12.50;;;21.30;69.00;;;;;;5086672;22;20524;-65
2021/10/29 11:04:44;;;;;;;15.93;10.67;;;20.20;71.50;;;;;;5057387;28;20737;-64
2021/10/29 11:09:52;;;;;;;18.63;11.30;;;19.50;73.80;;;;;;5085842;22;20501;-61
2021/10/29 11:10:25;;;;;;;18.87;11.63;;;19.00;75.60;;;;;;5076389;28;20458;-57
2021/10/29 11:13:11;;;;;;;18.20;11.60;;;18.40;77.90;;;;;;5084944;22;20504;-58
2021/10/29 11:15:39;;;;;;;15.57;9.50;;;17.80;80.00;;;;;;5077116;28;20431;-60
2021/10/29 11:18:33;;;;;;;22.10;11.50;;;17.50;82.00;;;;;;5084647;22;20498;-54
2021/10/29 11:21:18;;;;;;;15.10;10.70;;;17.00;84.50;;;;;;5077511;28;20530;-62
2021/10/29 11:23:56;;;;;;;15.37;9.07;;;16.80;88.40;;;;;;5085342;22;20521;-61
2021/10/29 11:26:30;;;;;;;13.80;10.70;;;16.80;91.50;;;;;;5076649;28;20442;-55
2021/10/29 11:28:58;;;;;;;18.70;10.03;;;16.90;91.30;;;;;;5092948;22;20513;-63
2021/10/29 11:31:28;;;;;;;15.07;10.67;;;16.80;92.60;;;;;;5074679;28;20962;-60
2021/10/29 11:33:58;;;;;;;14.27;10.70;;;16.80;92.80;;;;;;5084810;22;20493;-63
2021/10/29 11:36:27;;;;;;;23.73;11.13;;;16.80;92.90;;;;;;5078260;28;20488;-62
2021/10/29 11:38:55;;;;;;;15.60;11.00;;;16.80;93.10;;;;;;5087516;22;20509;-59
2021/10/29 11:41:26;;;;;;;24.23;14.83;;;16.70;93.70;;;;;;5078028;28;21173;-60
2021/10/29 11:46:35;;;;;;;20.43;10.50;;;16.60;95.70;;;;;;5084886;22;20885;-65
2021/10/29 11:51:46;;;;;;;14.27;11.00;;;16.80;95.10;;;;;;5087724;22;20593;-63
2021/10/29 11:57:09;;;;;;;16.93;10.20;;;16.70;95.90;;;;;;5087646;22;20564;-65
2021/10/29 11:59:57;;;;;;;14.63;10.63;;;16.80;97.10;;;;;;5088734;22;20430;-64
2021/10/29 12:07:54;;;;;;;13.40;10.53;;;17.00;96.40;;;;;;5079163;28;20418;-62
2021/10/29 12:10:22;;;;;;;17.60;11.93;;;17.00;97.10;;;;;;5086898;22;21149;-66
2021/10/29 12:12:53;;;;;;;19.13;11.70;;;17.10;96.90;;;;;;5079617;28;20556;-65
2021/10/29 12:15:25;;;;;;;16.60;11.20;;;17.00;96.60;;;;;;5079003;28;20747;-65
2021/10/29 12:17:56;;;;;;;15.87;10.40;;;17.00;97.30;;;;;;5086342;22;20498;-66
2021/10/29 12:20:28;;;;;;;17.43;11.93;;;17.10;97.50;;;;;;5078156;28;20450;-62
2021/10/29 12:22:58;;;;;;;17.27;10.87;;;17.20;97.30;;;;;;5086127;22;20529;-65
2021/10/29 12:25:31;;;;;;;22.83;11.10;;;17.30;97.00;;;;;;5078634;28;20508;-66
2021/10/29 12:28:01;;;;;;;19.30;12.40;;;17.30;96.00;;;;;;5086264;22;20486;-65
2021/10/29 12:30:32;;;;;;;15.20;10.57;;;17.20;97.20;;;;;;5078794;28;20454;-63
2021/10/29 12:39:03;;;;;;;17.43;11.10;;;17.00;97.10;;;;;;5078539;28;20480;-63
2021/10/29 12:53:03;;;;;;;22.03;13.33;;;16.50;98.30;;;;;;5078575;28;20445;-65
2021/10/29 13:03:46;;;;;;;17.63;11.10;;;16.60;98.80;;;;;;5080139;28;20406;-63
2021/10/29 13:06:17;;;;;;;19.13;11.40;;;16.50;98.30;;;;;;5087472;22;20551;-66
2021/10/29 13:08:49;;;;;;;18.67;12.47;;;16.40;98.70;;;;;;5080492;28;20759;-64
2021/10/29 13:11:17;;;;;;;17.53;12.60;;;16.30;99.00;;;;;;5080591;28;20526;-65
2021/10/29 13:13:48;;;;;;;16.17;10.70;;;16.30;99.30;;;;;;5080111;28;20489;-62
2021/10/29 13:16:16;;;;;;;15.77;11.40;;;16.50;99.20;;;;;;5079973;28;20442;-58
2021/10/29 13:18:56;;;;;;;16.70;12.10;;;16.70;99.20;;;;;;5080037;28;20450;-64
2021/10/29 13:22:05;;;;;;;19.17;12.53;;;16.90;99.20;;;;;;5079700;28;20442;-60
2021/10/29 13:58:20;;;;;;;14.00;9.77;;;16.30;99.40;;;;;;5073905;28;20536;-66
2021/10/29 14:28:06;;;;;;;14.43;11.07;;;16.10;99.90;;;;;;5062270;22;20502;-63
2021/10/29 14:30:09;;;;;;;18.30;11.97;;;16.00;99.90;;;;;;5054966;28;20462;-66
2021/10/29 14:32:42;;;;;;;25.53;11.63;;;15.90;99.90;;;;;;5065246;22;20526;-67
2021/10/29 14:35:16;;;;;;;15.93;10.57;;;15.90;99.90;;;;;;5056374;28;20527;-62
2021/10/29 14:37:50;;;;;;;17.60;12.20;;;15.80;99.90;;;;;;5064909;22;20470;-66
2021/10/29 14:40:21;;;;;;;17.23;11.50;;;15.70;99.90;;;;;;5054646;28;20464;-67
2021/10/29 14:45:21;;;;;;;19.33;12.23;;;15.60;99.90;;;;;;5098369;22;20469;-66
2021/10/29 14:47:58;;;;;;;16.97;12.50;;;15.60;99.90;;;;;;5076485;28;20541;-66
2021/10/29 15:18:18;;;;;;;16.93;11.07;;;15.00;99.90;;;;;;5057664;28;20454;-65
2021/10/29 15:26:49;;;;;;;17.77;12.80;;;14.90;99.90;;;;;;5087199;22;20488;-62
2021/10/29 15:29:21;;;;;;;18.90;13.27;;;14.90;99.90;;;;;;5078843;28;20569;-54
2021/10/29 15:45:44;;;;;;;21.30;12.27;;;14.60;99.90;;;;;;5062386;28;20433;-62
2021/10/29 15:48:14;;;;;;;19.97;13.43;;;14.50;99.90;;;;;;5103678;22;20504;-60
2021/10/29 15:50:42;;;;;;;27.87;12.90;;;14.50;99.90;;;;;;5080687;28;20437;-55
2021/10/29 15:53:12;;;;;;;18.50;12.63;;;14.40;99.90;;;;;;5087450;22;20493;-59
2021/10/29 15:55:41;;;;;;;18.87;12.30;;;14.40;99.90;;;;;;5080785;28;20474;-57
2021/10/29 15:58:22;;;;;;;21.10;15.77;;;14.30;99.90;;;;;;5087898;22;20539;-56
2021/10/29 16:00:58;;;;;;;21.07;13.70;;;14.30;99.90;;;;;;5078714;28;20431;-56
2021/10/29 16:03:29;;;;;;;19.67;13.17;;;14.20;99.90;;;;;;5088306;22;20513;-59
2021/10/29 16:17:15;;;;;;;24.50;13.87;;;14.00;99.90;;;;;;5075436;28;20453;-55
2021/10/29 16:19:43;;;;;;;20.73;13.40;;;13.90;99.90;;;;;;5105946;22;20494;-62
2021/10/29 16:22:19;;;;;;;21.60;13.10;;;13.90;99.90;;;;;;5082642;28;20554;-63
2021/10/29 16:27:39;;;;;;;23.33;14.83;;;13.90;99.90;;;;;;5079335;28;20470;-62
2021/10/29 16:30:07;;;;;;;24.37;15.87;;;13.80;99.90;;;;;;5083521;28;20903;-60
2021/10/29 16:33:04;;;;;;;19.00;13.20;;;13.80;99.90;;;;;;5085758;28;20458;-60
2021/10/29 16:35:34;;;;;;;20.67;14.57;;;13.70;99.90;;;;;;5093547;22;20577;-57
2021/10/29 16:38:03;;;;;;;21.43;14.27;;;13.60;99.90;;;;;;5086270;28;20442;-57
2021/10/29 16:40:33;;;;;;;23.10;15.53;;;13.60;99.90;;;;;;5110002;22;20482;-63
2021/10/29 16:43:00;;;;;;;22.43;16.00;;;13.60;99.90;;;;;;5086434;28;20455;-58
2021/10/29 16:45:30;;;;;;;25.70;16.27;;;13.50;99.90;;;;;;5094898;22;20496;-58
2021/10/29 16:47:57;;;;;;;21.83;14.97;;;13.60;99.90;;;;;;5083137;28;20503;-58
2021/10/29 16:50:28;;;;;;;22.97;15.00;;;13.50;99.90;;;;;;5089852;22;20490;-59
2021/10/29 16:52:54;;;;;;;29.80;17.37;;;13.50;99.90;;;;;;5080700;28;20441;-60
2021/10/29 16:55:22;;;;;;;25.27;16.37;;;13.50;99.90;;;;;;5085793;22;20493;-60
2021/10/29 16:57:49;;;;;;;21.43;16.60;;;13.50;99.90;;;;;;5085202;22;20501;-60
2021/10/29 17:00:17;;;;;;;21.43;13.87;;;13.50;99.90;;;;;;5079970;28;20469;-60
2021/10/29 17:02:44;;;;;;;21.30;14.60;;;13.50;99.90;;;;;;5089484;22;20494;-60
2021/10/29 17:05:12;;;;;;;24.13;16.40;;;13.50;99.90;;;;;;5080134;28;20454;-59
2021/10/29 17:07:40;;;;;;;22.23;16.17;;;13.50;99.90;;;;;;5087310;22;20505;-57